createdAt,value
2022-12-29T00:01:43.603Z,71.93
2022-12-29T00:04:15.757Z,71.28
2022-12-29T00:06:44.000Z,71.55
2022-12-29T00:09:13.694Z,71.63
2022-12-29T00:11:41.330Z,71.47
2022-12-29T00:14:29.824Z,71.15
2022-12-29T00:16:57.769Z,71.46
2022-12-29T00:19:57.532Z,71.19
2022-12-29T00:22:44.258Z,71.34
2022-12-29T00:25:32.352Z,70.84
2022-12-29T00:28:18.615Z,70.61
2022-12-29T00:31:04.264Z,71.24
2022-12-29T00:33:52.339Z,70.98
2022-12-29T00:36:24.506Z,71.01
2022-12-29T00:39:23.407Z,70.84
2022-12-29T00:42:08.989Z,70.86
2022-12-29T00:44:36.046Z,71.11
2022-12-29T00:47:04.377Z,70.75
2022-12-29T00:49:33.292Z,70.73
2022-12-29T00:52:07.993Z,70.90
2022-12-29T00:54:38.220Z,70.46
2022-12-29T00:57:07.466Z,70.40
2022-12-29T00:59:40.777Z,70.62
2022-12-29T01:02:09.088Z,70.85
2022-12-29T01:04:36.642Z,70.80
2022-12-29T01:07:03.893Z,70.68
2022-12-29T01:09:50.708Z,71.04
2022-12-29T01:12:17.952Z,70.66
2022-12-29T01:14:45.336Z,70.55
2022-12-29T01:17:12.368Z,70.77
2022-12-29T01:19:39.580Z,70.82
2022-12-29T01:22:06.585Z,70.36
2022-12-29T01:24:34.345Z,70.86
2022-12-29T01:27:01.316Z,70.00
2022-12-29T01:29:28.371Z,70.28
2022-12-29T01:31:55.396Z,70.17
2022-12-29T01:34:22.483Z,69.99
2022-12-29T01:36:49.486Z,69.97
2022-12-29T01:39:16.507Z,70.08
2022-12-29T01:41:43.509Z,69.98
2022-12-29T01:45:03.467Z,70.02
2022-12-29T01:47:47.051Z,69.80
2022-12-29T01:50:36.872Z,69.86
2022-12-29T01:53:21.563Z,70.00
2022-12-29T01:55:55.669Z,69.62
2022-12-29T01:58:28.165Z,69.85
2022-12-29T02:00:55.649Z,70.10
2022-12-29T02:03:25.627Z,69.69
2022-12-29T02:06:04.818Z,69.71
2022-12-29T02:08:32.075Z,69.59
2022-12-29T02:11:01.641Z,70.09
2022-12-29T02:13:29.459Z,70.34
2022-12-29T02:16:46.808Z,70.64
2022-12-29T02:19:50.802Z,71.25
2022-12-29T02:22:59.252Z,71.87
2022-12-29T02:26:17.345Z,72.60
2022-12-29T02:29:30.629Z,72.79
2022-12-29T02:32:09.179Z,72.71
2022-12-29T02:34:57.446Z,73.55
2022-12-29T02:37:50.797Z,74.12
2022-12-29T02:40:33.095Z,74.31
2022-12-29T02:43:03.972Z,74.60
2022-12-29T02:45:44.966Z,75.15
2022-12-29T02:48:40.054Z,75.67
2022-12-29T02:51:52.720Z,76.62
2022-12-29T02:54:41.303Z,76.82
2022-12-29T02:57:23.115Z,77.47
2022-12-29T03:00:09.530Z,77.73
2022-12-29T03:03:35.919Z,78.74
2022-12-29T03:06:40.370Z,79.84
2022-12-29T03:09:21.652Z,79.50
2022-12-29T03:12:20.439Z,80.33
2022-12-29T03:15:33.325Z,81.13
2022-12-29T03:18:16.529Z,81.57
2022-12-29T03:20:59.058Z,82.25
2022-12-29T03:23:28.940Z,82.74
2022-12-29T03:26:02.700Z,82.61
2022-12-29T03:28:36.886Z,83.13
2022-12-29T03:31:05.726Z,83.24
2022-12-29T03:33:33.802Z,83.99
2022-12-29T03:36:07.372Z,84.22
2022-12-29T03:38:47.043Z,84.46
2022-12-29T03:41:21.536Z,84.54
2022-12-29T03:43:48.972Z,84.67
2022-12-29T03:46:16.077Z,85.14
2022-12-29T03:48:43.164Z,85.11
2022-12-29T03:51:10.387Z,85.05
2022-12-29T03:53:37.439Z,84.91
2022-12-29T03:56:04.866Z,84.76
2022-12-29T03:58:31.853Z,84.43
2022-12-29T04:00:59.092Z,84.47
2022-12-29T04:03:26.144Z,84.00
2022-12-29T04:05:53.193Z,83.99
2022-12-29T04:08:20.216Z,83.97
2022-12-29T04:10:48.770Z,83.98
2022-12-29T04:13:15.736Z,83.67
2022-12-29T04:15:46.271Z,83.20
2022-12-29T04:18:14.361Z,82.65
2022-12-29T04:21:00.463Z,82.83
2022-12-29T04:23:29.049Z,83.07
2022-12-29T04:25:56.099Z,83.19
2022-12-29T04:28:23.192Z,82.97
2022-12-29T04:30:50.697Z,82.70
2022-12-29T04:33:19.139Z,82.35
2022-12-29T04:35:47.263Z,82.51
2022-12-29T04:38:14.723Z,82.82
2022-12-29T04:40:44.220Z,82.72
2022-12-29T04:43:11.580Z,82.59
2022-12-29T04:45:38.676Z,82.47
2022-12-29T04:48:06.376Z,82.71
2022-12-29T04:50:33.408Z,82.79
2022-12-29T04:53:00.451Z,82.67
2022-12-29T04:55:27.579Z,82.69
2022-12-29T04:57:54.652Z,82.65
2022-12-29T05:00:21.893Z,82.43
2022-12-29T05:02:49.140Z,81.93
2022-12-29T05:05:16.853Z,81.86
2022-12-29T05:07:43.945Z,81.57
2022-12-29T05:10:12.052Z,81.55
2022-12-29T05:12:39.850Z,80.88
2022-12-29T05:15:12.088Z,80.77
2022-12-29T05:17:39.103Z,80.36
2022-12-29T05:20:07.991Z,80.74
2022-12-29T05:22:35.175Z,80.59
2022-12-29T05:25:02.222Z,80.38
2022-12-29T05:27:29.288Z,79.95
2022-12-29T05:29:56.344Z,79.35
2022-12-29T05:32:23.393Z,79.27
2022-12-29T05:34:50.757Z,78.85
2022-12-29T05:37:18.041Z,78.88
2022-12-29T05:39:45.460Z,78.49
2022-12-29T05:42:12.511Z,78.42
2022-12-29T05:44:39.653Z,78.12
2022-12-29T05:47:06.764Z,77.90
2022-12-29T05:49:33.959Z,77.77
2022-12-29T05:52:01.007Z,77.55
2022-12-29T05:54:27.981Z,77.47
2022-12-29T05:56:55.058Z,77.00
2022-12-29T05:59:22.075Z,77.27
2022-12-29T06:01:49.236Z,77.14
2022-12-29T06:04:16.438Z,76.71
2022-12-29T06:06:44.487Z,76.62
2022-12-29T06:09:12.059Z,76.68
2022-12-29T06:11:39.133Z,76.44
2022-12-29T06:14:06.138Z,76.04
2022-12-29T06:16:33.189Z,75.85
2022-12-29T06:19:00.240Z,75.43
2022-12-29T06:21:27.282Z,75.06
2022-12-29T06:23:54.651Z,74.93
2022-12-29T06:26:21.858Z,74.52
2022-12-29T06:28:48.879Z,74.62
2022-12-29T06:31:15.944Z,74.52
2022-12-29T06:33:45.228Z,74.22
2022-12-29T06:36:15.385Z,74.56
2022-12-29T06:38:42.571Z,74.34
2022-12-29T06:41:09.588Z,74.52
2022-12-29T06:43:39.113Z,74.56
2022-12-29T06:46:06.771Z,74.28
2022-12-29T06:48:33.959Z,74.08
2022-12-29T06:51:01.185Z,74.71
2022-12-29T06:53:28.348Z,74.41
2022-12-29T06:55:55.416Z,74.14
2022-12-29T06:58:22.617Z,73.84
2022-12-29T07:00:49.907Z,73.88
2022-12-29T07:03:17.004Z,73.94
2022-12-29T07:05:44.167Z,74.13
2022-12-29T07:08:11.198Z,73.94
2022-12-29T07:10:38.236Z,74.17
2022-12-29T07:13:05.340Z,74.11
2022-12-29T07:15:32.349Z,74.08
2022-12-29T07:17:59.424Z,73.66
2022-12-29T07:20:27.376Z,73.36
2022-12-29T07:22:54.855Z,73.18
2022-12-29T07:25:22.003Z,72.89
2022-12-29T07:27:49.734Z,72.54
2022-12-29T07:30:16.971Z,72.58
2022-12-29T07:32:44.494Z,71.89
2022-12-29T07:35:11.523Z,71.41
2022-12-29T07:37:38.575Z,71.64
2022-12-29T07:40:06.436Z,71.42
2022-12-29T07:42:33.513Z,71.35
2022-12-29T07:45:01.335Z,71.04
2022-12-29T07:47:28.696Z,70.76
2022-12-29T07:49:55.794Z,70.67
2022-12-29T07:52:22.789Z,70.74
2022-12-29T07:54:49.826Z,70.54
2022-12-29T07:57:17.009Z,70.25
2022-12-29T07:59:44.461Z,70.03
2022-12-29T08:02:15.200Z,69.36
2022-12-29T08:04:42.249Z,69.26
2022-12-29T08:07:09.265Z,69.55
2022-12-29T08:09:36.281Z,69.24
2022-12-29T08:12:03.415Z,69.08
2022-12-29T08:14:30.398Z,68.36
2022-12-29T08:16:57.470Z,68.00
2022-12-29T08:19:24.576Z,67.68
2022-12-29T08:21:52.295Z,67.68
2022-12-29T08:24:19.300Z,67.46
2022-12-29T08:26:46.335Z,66.87
2022-12-29T08:29:13.455Z,67.08
2022-12-29T08:31:40.513Z,66.88
2022-12-29T08:34:07.605Z,66.68
2022-12-29T08:36:34.765Z,66.07
2022-12-29T08:39:01.925Z,65.71
2022-12-29T08:41:29.183Z,64.99
2022-12-29T08:43:56.273Z,65.11
2022-12-29T08:46:23.559Z,64.85
2022-12-29T08:48:50.671Z,64.67
2022-12-29T08:51:22.850Z,64.54
2022-12-29T08:53:52.007Z,64.72
2022-12-29T08:56:19.391Z,63.92
2022-12-29T08:58:46.494Z,64.41
2022-12-29T09:01:13.556Z,64.02
2022-12-29T09:06:27.650Z,64.30
2022-12-29T09:08:55.926Z,64.04
2022-12-29T09:11:26.023Z,63.74
2022-12-29T09:13:54.728Z,63.58
2022-12-29T09:16:24.672Z,63.94
2022-12-29T09:18:51.987Z,63.29
2022-12-29T09:21:19.241Z,62.72
2022-12-29T09:23:46.366Z,62.92
2022-12-29T09:26:13.434Z,62.60
2022-12-29T09:28:41.220Z,62.40
2022-12-29T09:31:08.606Z,62.54
2022-12-29T09:33:35.866Z,62.24
2022-12-29T09:36:03.302Z,62.35
2022-12-29T09:38:30.438Z,62.83
2022-12-29T09:41:25.379Z,62.31
2022-12-29T09:44:12.618Z,62.63
2022-12-29T09:46:45.984Z,62.39
2022-12-29T09:49:40.964Z,62.85
2022-12-29T09:52:32.168Z,62.38
2022-12-29T09:55:10.661Z,62.13
2022-12-29T09:58:03.306Z,62.29
2022-12-29T10:00:39.601Z,62.58
2022-12-29T10:03:18.880Z,62.23
2022-12-29T10:06:32.739Z,62.43
2022-12-29T10:09:35.000Z,62.35
2022-12-29T10:12:49.153Z,62.27
2022-12-29T10:16:37.745Z,62.69
2022-12-29T10:19:22.345Z,62.53
2022-12-29T10:22:16.411Z,62.34
2022-12-29T10:24:47.476Z,62.29
2022-12-29T10:27:17.878Z,62.29
2022-12-29T10:29:56.047Z,62.55
2022-12-29T10:32:36.017Z,62.63
2022-12-29T10:35:22.763Z,62.39
2022-12-29T10:38:22.160Z,61.92
2022-12-29T10:41:21.844Z,62.11
2022-12-29T10:43:52.686Z,61.71
2022-12-29T10:46:31.565Z,61.45
2022-12-29T10:48:58.567Z,61.18
2022-12-29T10:51:31.393Z,61.37
2022-12-29T10:54:33.848Z,60.97
2022-12-29T10:57:14.844Z,61.10
2022-12-29T10:59:43.216Z,61.31
2022-12-29T11:02:13.216Z,61.20
2022-12-29T11:05:05.924Z,61.26
2022-12-29T11:07:32.996Z,61.31
2022-12-29T11:10:35.215Z,61.37
2022-12-29T11:13:16.371Z,61.49
2022-12-29T11:15:49.383Z,61.33
2022-12-29T11:18:23.913Z,61.32
2022-12-29T11:21:01.254Z,61.43
2022-12-29T11:23:41.448Z,61.00
2022-12-29T11:26:33.808Z,60.99
2022-12-29T11:29:24.487Z,61.09
2022-12-29T11:32:00.347Z,61.02
2022-12-29T11:34:34.820Z,60.62
2022-12-29T11:37:13.072Z,60.81
2022-12-29T11:39:47.715Z,60.98
2022-12-29T11:42:23.152Z,61.01
2022-12-29T11:44:52.546Z,60.79
2022-12-29T11:47:37.645Z,60.82
2022-12-29T11:50:08.344Z,60.92
2022-12-29T11:52:40.588Z,61.04
2022-12-29T11:55:23.232Z,61.31
2022-12-29T21:05:23.727Z,67.32
2022-12-29T21:07:52.144Z,67.39
2022-12-29T21:10:19.540Z,67.74
2022-12-29T21:12:47.718Z,67.52
2022-12-29T21:15:15.663Z,67.53
2022-12-29T21:17:46.122Z,67.78
2022-12-29T21:20:20.024Z,67.71
2022-12-29T21:22:50.137Z,67.31
2022-12-29T21:25:17.215Z,67.68
2022-12-29T21:27:44.360Z,67.57
2022-12-29T21:30:12.358Z,67.81
2022-12-29T21:32:40.564Z,67.84
2022-12-29T21:35:09.326Z,67.92
2022-12-29T21:37:36.988Z,67.60
2022-12-29T21:40:04.766Z,67.63
2022-12-29T21:42:32.000Z,67.74
2022-12-29T21:45:20.687Z,67.93
2022-12-29T21:48:07.339Z,67.53
2022-12-29T21:50:58.269Z,67.55
2022-12-29T21:53:37.756Z,67.88
2022-12-29T21:56:15.983Z,68.10
2022-12-29T21:59:09.906Z,68.11
2022-12-29T22:01:57.277Z,68.41
2022-12-29T22:04:44.655Z,68.47
2022-12-29T22:07:31.878Z,68.07
2022-12-29T22:10:17.696Z,67.67
2022-12-29T22:13:03.480Z,68.01
2022-12-29T22:15:37.287Z,67.95
2022-12-29T22:18:05.262Z,68.02
2022-12-29T22:20:35.816Z,68.17
2022-12-29T22:23:03.423Z,67.88
2022-12-29T22:25:30.684Z,68.12
2022-12-29T22:27:59.887Z,67.82
2022-12-29T22:30:30.083Z,67.94
2022-12-29T22:32:59.035Z,68.08
2022-12-29T22:35:26.133Z,68.17
2022-12-29T22:37:53.349Z,68.15
2022-12-29T22:40:20.736Z,67.68
2022-12-29T22:42:47.726Z,67.17
2022-12-29T22:45:15.202Z,67.50
2022-12-29T22:47:42.284Z,67.63
2022-12-29T22:50:10.194Z,67.61
2022-12-29T22:52:37.451Z,67.61
2022-12-29T22:55:07.282Z,67.63
2022-12-29T22:57:35.704Z,67.57
2022-12-29T23:00:06.695Z,67.81
2022-12-29T23:02:34.126Z,67.75
2022-12-29T23:05:04.471Z,67.49
2022-12-29T23:07:35.650Z,67.54
2022-12-29T23:10:05.005Z,67.21
2022-12-29T23:12:32.595Z,67.27
2022-12-29T23:14:59.703Z,67.53
2022-12-29T23:17:26.873Z,67.72
2022-12-29T23:19:54.283Z,67.66
2022-12-29T23:22:23.010Z,67.38
2022-12-29T23:24:50.176Z,67.26
2022-12-29T23:27:17.583Z,67.30
2022-12-29T23:29:44.658Z,67.34
2022-12-29T23:32:11.684Z,67.28
2022-12-29T23:34:38.711Z,67.59
2022-12-29T23:37:05.844Z,67.39
2022-12-29T23:39:32.866Z,67.52
2022-12-29T23:41:59.859Z,67.49
2022-12-29T23:44:26.928Z,67.39
2022-12-29T23:46:54.040Z,67.60
2022-12-29T23:49:21.137Z,67.61
2022-12-29T23:51:48.326Z,67.57
2022-12-29T23:54:15.394Z,67.71
2022-12-29T23:56:42.441Z,67.96
2022-12-29T23:59:09.501Z,67.60
